createdAt,value
2024-03-06T00:00:37.627Z,53.26
2024-03-06T00:01:37.763Z,54.09
2024-03-06T00:02:37.795Z,52.08
2024-03-06T00:03:37.837Z,52.09
2024-03-06T00:04:37.974Z,50.66
2024-03-06T00:05:37.942Z,51.53
2024-03-06T00:06:38.006Z,51.09
2024-03-06T00:07:38.055Z,50.30
2024-03-06T00:08:38.091Z,52.81
2024-03-06T00:09:38.181Z,52.97
2024-03-06T00:10:38.391Z,51.45
2024-03-06T00:11:38.399Z,53.67
2024-03-06T00:12:38.437Z,54.36
2024-03-06T00:13:38.457Z,55.79
2024-03-06T00:14:38.524Z,53.22
2024-03-06T00:15:38.533Z,56.69
2024-03-06T00:16:38.612Z,55.75
2024-03-06T00:17:38.702Z,54.40
2024-03-06T00:18:38.723Z,54.17
2024-03-06T00:19:38.824Z,55.72
2024-03-06T00:20:38.852Z,54.30
2024-03-06T00:21:38.927Z,56.02
2024-03-06T00:22:38.990Z,53.74
2024-03-06T00:23:39.061Z,54.71
2024-03-06T00:24:39.125Z,53.98
2024-03-06T00:25:39.307Z,52.83
2024-03-06T00:26:39.255Z,51.56
2024-03-06T00:27:39.311Z,52.69
2024-03-06T00:28:39.417Z,53.57
2024-03-06T00:29:39.455Z,52.64
2024-03-06T00:30:39.495Z,52.67
2024-03-06T00:31:39.615Z,53.70
2024-03-06T00:32:39.660Z,52.45
2024-03-06T00:33:39.818Z,50.54
2024-03-06T00:34:39.816Z,51.84
2024-03-06T00:35:39.867Z,52.29
2024-03-06T00:36:39.950Z,51.00
2024-03-06T00:37:40.034Z,50.76
2024-03-06T00:38:40.089Z,50.32
2024-03-06T00:39:40.154Z,50.76
2024-03-06T00:40:40.270Z,51.54
2024-03-06T00:41:40.294Z,51.17
2024-03-06T00:42:40.317Z,51.51
2024-03-06T00:43:40.457Z,53.75
2024-03-06T00:44:40.490Z,53.76
2024-03-06T00:45:40.607Z,51.78
2024-03-06T00:46:40.662Z,54.01
2024-03-06T00:47:40.737Z,52.45
2024-03-06T00:48:42.177Z,55.87
2024-03-06T00:49:40.875Z,54.55
2024-03-06T00:50:40.955Z,55.09
2024-03-06T00:51:45.183Z,55.02
2024-03-06T00:52:42.021Z,55.04
2024-03-06T00:53:41.014Z,55.13
2024-03-06T00:54:40.967Z,53.88
2024-03-06T00:55:41.064Z,51.29
2024-03-06T00:56:40.976Z,50.90
2024-03-06T00:57:40.999Z,50.55
2024-03-06T00:58:41.033Z,52.56
2024-03-06T00:59:41.004Z,50.00
2024-03-06T01:00:41.076Z,51.05
2024-03-06T01:01:41.066Z,51.68
2024-03-06T01:02:41.110Z,53.02
2024-03-06T01:03:41.147Z,53.44
2024-03-06T01:04:41.231Z,53.68
2024-03-06T01:05:41.264Z,52.41
2024-03-06T01:06:41.298Z,52.24
2024-03-06T01:07:41.422Z,53.65
2024-03-06T01:08:41.359Z,54.50
2024-03-06T01:09:41.436Z,51.47
2024-03-06T01:10:41.533Z,54.04
2024-03-06T01:11:41.511Z,54.41
2024-03-06T01:12:41.598Z,51.27
2024-03-06T01:13:41.647Z,54.36
2024-03-06T01:14:41.632Z,54.46
2024-03-06T01:15:41.679Z,54.00
2024-03-06T01:16:41.722Z,53.23
2024-03-06T01:17:41.753Z,51.50
2024-03-06T01:18:41.745Z,52.59
2024-03-06T01:19:41.805Z,52.07
2024-03-06T01:20:41.805Z,54.51
2024-03-06T01:21:41.860Z,53.88
2024-03-06T01:22:41.884Z,55.44
2024-03-06T01:23:41.922Z,53.57
2024-03-06T01:24:41.880Z,53.36
2024-03-06T01:25:41.903Z,52.56
2024-03-06T01:26:41.920Z,54.83
2024-03-06T01:27:41.995Z,54.65
2024-03-06T01:28:41.929Z,56.03
2024-03-06T01:29:41.995Z,54.81
2024-03-06T01:30:41.975Z,55.10
2024-03-06T01:31:42.018Z,53.80
2024-03-06T01:32:42.078Z,55.73
2024-03-06T01:33:41.969Z,54.50
2024-03-06T01:34:41.997Z,53.11
2024-03-06T01:35:41.991Z,52.74
2024-03-06T01:36:41.981Z,50.34
2024-03-06T01:37:42.017Z,50.85
2024-03-06T01:38:41.994Z,50.85
2024-03-06T01:39:41.994Z,49.61
2024-03-06T01:40:42.116Z,51.25
2024-03-06T01:41:42.002Z,50.33
2024-03-06T01:42:41.989Z,54.43
2024-03-06T01:43:42.043Z,53.13
2024-03-06T01:44:42.020Z,52.11
2024-03-06T01:45:42.072Z,51.37
2024-03-06T01:46:42.132Z,50.02
2024-03-06T01:47:42.086Z,51.60
2024-03-06T01:48:42.106Z,51.26
2024-03-06T01:49:45.302Z,50.22
2024-03-06T01:50:42.119Z,51.48
2024-03-06T01:51:42.089Z,51.44
2024-03-06T01:52:42.127Z,51.66
2024-03-06T01:53:42.094Z,51.88
2024-03-06T01:54:42.117Z,50.77
2024-03-06T01:55:42.228Z,50.31
2024-03-06T01:56:42.124Z,50.72
2024-03-06T01:57:42.101Z,51.49
2024-03-06T01:58:42.170Z,51.91
2024-03-06T01:59:42.142Z,52.23
2024-03-06T02:00:42.116Z,51.00
2024-03-06T02:01:42.151Z,51.44
2024-03-06T02:02:42.119Z,52.22
2024-03-06T02:03:42.106Z,51.40
2024-03-06T02:04:42.126Z,51.31
2024-03-06T02:05:42.114Z,53.38
2024-03-06T02:06:42.121Z,50.99
2024-03-06T02:07:42.163Z,52.16
2024-03-06T02:08:42.132Z,52.27
2024-03-06T02:09:42.099Z,51.96
2024-03-06T02:10:42.151Z,52.21
2024-03-06T02:11:42.082Z,51.43
2024-03-06T02:12:42.121Z,53.35
2024-03-06T02:13:42.199Z,52.30
2024-03-06T02:14:42.102Z,53.26
2024-03-06T02:15:42.140Z,51.15
2024-03-06T02:16:42.227Z,52.67
2024-03-06T02:17:42.104Z,52.85
2024-03-06T02:18:42.113Z,53.46
2024-03-06T02:19:42.190Z,53.24
2024-03-06T02:20:42.150Z,52.55
2024-03-06T02:21:42.108Z,51.63
2024-03-06T02:22:42.145Z,52.45
2024-03-06T02:23:42.162Z,52.45
2024-03-06T02:24:42.140Z,51.98
2024-03-06T02:25:42.153Z,51.95
2024-03-06T02:26:42.118Z,52.56
2024-03-06T02:27:42.121Z,51.22
2024-03-06T02:28:42.121Z,52.95
2024-03-06T02:29:42.162Z,52.07
2024-03-06T02:30:42.132Z,50.86
2024-03-06T02:31:42.181Z,51.76
2024-03-06T02:32:42.198Z,51.72
2024-03-06T02:33:42.118Z,51.05
2024-03-06T02:34:42.182Z,51.15
2024-03-06T02:35:42.171Z,50.53
2024-03-06T02:36:42.139Z,52.31
2024-03-06T02:37:42.173Z,51.01
2024-03-06T02:38:42.129Z,50.56
2024-03-06T02:39:42.159Z,50.84
2024-03-06T02:40:42.233Z,50.92
2024-03-06T02:41:42.172Z,51.24
2024-03-06T02:42:42.192Z,51.20
2024-03-06T02:43:42.172Z,51.06
2024-03-06T02:44:42.129Z,51.04
2024-03-06T02:45:42.141Z,50.23
2024-03-06T02:46:42.176Z,50.74
2024-03-06T02:47:42.231Z,50.51
2024-03-06T02:48:42.155Z,51.81
2024-03-06T02:49:42.206Z,50.84
2024-03-06T02:50:42.146Z,51.90
2024-03-06T02:51:42.136Z,50.40
2024-03-06T02:52:42.233Z,50.37
2024-03-06T02:53:42.230Z,52.79
2024-03-06T02:54:42.148Z,51.51
2024-03-06T02:55:42.288Z,51.21
2024-03-06T02:56:42.166Z,51.90
2024-03-06T02:57:42.218Z,51.67
2024-03-06T02:58:42.319Z,52.99
2024-03-06T02:59:42.342Z,52.21
2024-03-06T03:00:42.486Z,53.33
2024-03-06T03:01:42.505Z,53.48
2024-03-06T03:02:42.507Z,53.04
2024-03-06T03:03:42.569Z,52.66
2024-03-06T03:04:42.607Z,52.52
2024-03-06T03:05:42.687Z,53.06
2024-03-06T03:06:42.686Z,51.67
2024-03-06T03:07:42.745Z,51.67
2024-03-06T03:08:42.812Z,52.36
2024-03-06T03:09:42.859Z,52.16
2024-03-06T03:10:42.957Z,53.67
2024-03-06T03:11:42.979Z,54.53
2024-03-06T03:12:43.051Z,55.64
2024-03-06T03:13:43.105Z,57.35
2024-03-06T03:14:43.171Z,56.22
2024-03-06T03:15:43.197Z,55.99
2024-03-06T03:16:43.383Z,55.96
2024-03-06T03:17:43.360Z,55.05
2024-03-06T03:18:43.392Z,55.81
2024-03-06T03:19:43.494Z,55.64
2024-03-06T03:20:43.507Z,55.07
2024-03-06T03:21:43.558Z,53.04
2024-03-06T03:22:43.641Z,55.00
2024-03-06T03:23:43.630Z,53.41
2024-03-06T03:24:43.679Z,53.20
2024-03-06T03:25:43.769Z,55.74
2024-03-06T03:26:43.794Z,53.82
2024-03-06T03:27:43.864Z,54.32
2024-03-06T03:28:43.929Z,54.79
2024-03-06T03:29:43.970Z,50.15
2024-03-06T03:30:44.034Z,53.79
2024-03-06T03:31:44.076Z,54.56
2024-03-06T03:32:44.140Z,51.55
2024-03-06T03:33:44.154Z,53.78
2024-03-06T03:34:44.238Z,52.29
2024-03-06T03:35:44.317Z,52.43
2024-03-06T03:36:44.331Z,50.89
2024-03-06T03:37:44.434Z,51.82
2024-03-06T03:38:44.444Z,50.68
2024-03-06T03:39:44.497Z,51.97
2024-03-06T03:40:44.559Z,50.18
2024-03-06T03:41:44.668Z,51.82
2024-03-06T03:42:44.649Z,50.99
2024-03-06T03:43:44.713Z,53.67
2024-03-06T03:44:44.728Z,51.58
2024-03-06T03:45:44.793Z,52.30
2024-03-06T03:46:44.954Z,51.04
2024-03-06T03:47:44.958Z,53.69
2024-03-06T03:48:44.957Z,52.87
2024-03-06T03:49:48.624Z,52.70
2024-03-06T03:50:46.112Z,52.51
2024-03-06T03:51:45.016Z,51.42
2024-03-06T03:52:45.112Z,52.52
2024-03-06T03:53:45.027Z,51.47
2024-03-06T03:54:45.029Z,50.57
2024-03-06T03:55:45.036Z,51.06
2024-03-06T03:56:45.039Z,51.30
2024-03-06T03:57:45.027Z,51.42
2024-03-06T03:58:45.067Z,50.60
2024-03-06T03:59:45.030Z,50.36
2024-03-06T04:00:45.113Z,52.54
2024-03-06T04:01:45.169Z,52.33
2024-03-06T04:02:45.210Z,53.49
2024-03-06T04:03:45.289Z,53.44
2024-03-06T04:04:45.391Z,52.89
2024-03-06T04:05:45.384Z,52.52
2024-03-06T04:06:45.431Z,54.46
2024-03-06T04:07:45.495Z,53.35
2024-03-06T04:08:45.552Z,53.75
2024-03-06T04:09:45.589Z,55.28
2024-03-06T04:10:45.670Z,53.93
2024-03-06T04:11:45.740Z,55.41
2024-03-06T04:12:45.812Z,54.35
2024-03-06T04:13:45.927Z,54.52
2024-03-06T04:14:45.923Z,55.00
2024-03-06T04:15:45.990Z,56.63
2024-03-06T04:16:46.042Z,54.69
2024-03-06T04:17:46.091Z,54.58
2024-03-06T04:18:46.175Z,55.43
2024-03-06T04:19:46.259Z,54.28
2024-03-06T04:20:46.293Z,53.94
2024-03-06T04:21:46.374Z,53.92
2024-03-06T04:22:46.446Z,53.57
2024-03-06T04:23:46.460Z,53.07
2024-03-06T04:24:46.518Z,53.17
2024-03-06T04:25:46.668Z,51.74
2024-03-06T04:26:46.681Z,55.25
2024-03-06T04:27:46.732Z,54.65
2024-03-06T04:28:46.823Z,53.12
2024-03-06T04:29:46.888Z,55.31
2024-03-06T04:30:46.972Z,54.65
2024-03-06T04:31:47.029Z,54.41
2024-03-06T04:32:47.069Z,53.47
2024-03-06T04:33:47.181Z,53.56
2024-03-06T04:34:47.218Z,53.27
2024-03-06T04:35:47.302Z,53.97
2024-03-06T04:36:47.331Z,53.09
2024-03-06T04:37:47.410Z,52.75
2024-03-06T04:38:47.466Z,56.45
2024-03-06T04:39:47.519Z,52.97
2024-03-06T04:40:47.676Z,55.26
2024-03-06T04:41:47.705Z,53.11
2024-03-06T04:42:47.741Z,54.10
2024-03-06T04:43:47.888Z,52.77
2024-03-06T04:44:47.911Z,53.84
2024-03-06T04:45:47.995Z,54.12
2024-03-06T04:46:48.090Z,52.78
2024-03-06T04:47:48.137Z,53.43
2024-03-06T04:48:48.197Z,52.83
2024-03-06T04:49:48.329Z,52.75
2024-03-06T04:50:48.358Z,53.64
2024-03-06T04:51:48.383Z,53.60
2024-03-06T04:52:48.507Z,54.06
2024-03-06T04:53:48.537Z,54.39
2024-03-06T04:54:48.624Z,54.35
2024-03-06T04:55:56.110Z,50.00
2024-03-06T04:56:55.981Z,50.00
2024-03-06T04:57:55.986Z,50.00
2024-03-06T04:58:56.002Z,50.00
2024-03-06T04:59:56.012Z,50.00
2024-03-06T05:00:56.125Z,51.28
2024-03-06T05:01:56.122Z,52.25
2024-03-06T05:58:13.504Z,53.82
2024-03-06T05:58:56.384Z,57.68
2024-03-06T05:59:56.362Z,76.65
2024-03-06T06:00:56.422Z,104.03
2024-03-06T06:01:56.370Z,133.04
2024-03-06T06:02:56.381Z,166.77
2024-03-06T06:03:56.365Z,168.36
2024-03-06T06:05:04.980Z,158.43
2024-03-06T06:05:57.376Z,152.57
2024-03-06T06:06:56.409Z,146.11
2024-03-06T06:07:56.405Z,140.43
2024-03-06T06:08:56.363Z,133.56
2024-03-06T06:09:56.360Z,127.99
2024-03-06T06:10:56.474Z,129.10
2024-03-06T06:11:56.469Z,126.86
2024-03-06T06:12:56.370Z,124.83
2024-03-06T06:13:56.443Z,129.45
2024-03-06T06:14:56.381Z,124.56
2024-03-06T06:15:56.347Z,125.71
2024-03-06T06:16:56.450Z,123.89
2024-03-06T06:17:56.501Z,123.48
2024-03-06T06:18:56.429Z,125.94
2024-03-06T06:19:56.553Z,126.12
2024-03-06T06:20:56.605Z,125.79
2024-03-06T06:21:56.651Z,127.73
2024-03-06T06:22:56.757Z,124.99
2024-03-06T06:23:56.764Z,130.35
2024-03-06T06:24:56.798Z,128.95
2024-03-06T06:25:56.929Z,130.12
2024-03-06T06:26:56.908Z,132.68
2024-03-06T06:27:56.985Z,132.34
2024-03-06T06:28:57.051Z,129.30
2024-03-06T06:29:57.115Z,132.33
2024-03-06T06:30:57.179Z,132.14
2024-03-06T06:31:57.240Z,130.59
2024-03-06T06:32:57.261Z,134.93
2024-03-06T06:33:57.306Z,132.93
2024-03-06T06:34:57.373Z,137.82
2024-03-06T06:35:57.462Z,136.40
2024-03-06T06:36:57.461Z,140.93
2024-03-06T06:37:57.544Z,143.69
2024-03-06T06:38:57.547Z,141.41
2024-03-06T06:39:57.608Z,145.15
2024-03-06T06:40:57.708Z,151.29
2024-03-06T06:41:57.800Z,156.36
2024-03-06T06:42:57.799Z,161.84
2024-03-06T06:43:57.864Z,167.95
2024-03-06T06:44:57.882Z,169.71
2024-03-06T06:45:59.216Z,179.20
2024-03-06T06:46:58.038Z,182.03
2024-03-06T06:47:58.106Z,185.20
2024-03-06T06:48:58.049Z,191.20
2024-03-06T06:49:58.162Z,194.10
2024-03-06T06:50:58.127Z,199.33
2024-03-06T06:51:58.154Z,199.14
2024-03-06T06:52:58.221Z,200.00
2024-03-06T06:54:00.785Z,200.00
2024-03-06T06:54:58.186Z,198.93
2024-03-06T06:55:58.276Z,199.49
2024-03-06T06:56:58.186Z,198.57
2024-03-06T06:57:58.165Z,200.54
2024-03-06T06:58:58.268Z,199.65
2024-03-06T06:59:58.197Z,200.00
2024-03-06T07:00:58.209Z,200.09
2024-03-06T07:01:58.459Z,200.00
2024-03-06T07:02:58.211Z,200.00
2024-03-06T07:03:58.224Z,199.72
2024-03-06T07:04:58.266Z,200.00
2024-03-06T07:05:58.203Z,199.41
2024-03-06T07:06:58.201Z,198.35
2024-03-06T07:07:58.268Z,200.42
2024-03-06T07:08:58.252Z,198.81
2024-03-06T07:09:58.205Z,199.30
2024-03-06T07:10:58.273Z,200.00
2024-03-06T07:11:58.271Z,200.41
2024-03-06T07:12:58.214Z,200.00
2024-03-06T07:13:58.264Z,200.00
2024-03-06T07:14:58.210Z,200.00
2024-03-06T07:15:58.231Z,200.00
2024-03-06T07:16:58.258Z,200.00
2024-03-06T07:17:58.366Z,199.55
2024-03-06T07:18:58.209Z,199.34
2024-03-06T07:19:58.249Z,199.46
2024-03-06T07:20:58.227Z,199.49
2024-03-06T07:21:58.251Z,200.00
2024-03-06T07:22:58.260Z,200.00
2024-03-06T07:23:58.196Z,199.29
2024-03-06T07:24:58.209Z,199.30
2024-03-06T07:25:58.292Z,199.47
2024-03-06T07:26:58.225Z,199.70
2024-03-06T07:27:58.246Z,198.88
2024-03-06T07:28:58.275Z,197.50
2024-03-06T07:29:58.245Z,198.43
2024-03-06T07:30:58.242Z,198.94
2024-03-06T07:31:58.294Z,198.16
2024-03-06T07:32:58.278Z,198.72
2024-03-06T07:33:58.280Z,198.32
2024-03-06T07:34:58.274Z,198.58
2024-03-06T07:35:58.271Z,199.82
2024-03-06T07:36:58.851Z,199.62
2024-03-06T07:37:58.287Z,200.16
2024-03-06T07:38:58.253Z,199.32
2024-03-06T07:39:58.278Z,199.69
2024-03-06T07:40:58.338Z,199.00
2024-03-06T07:41:58.283Z,198.78
2024-03-06T07:42:58.271Z,199.55
2024-03-06T07:43:58.274Z,198.09
2024-03-06T07:44:58.256Z,198.88
2024-03-06T07:45:58.256Z,199.02
2024-03-06T07:46:58.317Z,199.40
2024-03-06T07:47:58.370Z,200.00
2024-03-06T07:48:58.240Z,199.45
2024-03-06T07:49:58.319Z,199.69
2024-03-06T07:50:58.260Z,199.46
2024-03-06T07:51:58.324Z,199.16
2024-03-06T07:52:58.383Z,198.84
2024-03-06T07:53:58.260Z,198.54
2024-03-06T07:54:58.269Z,199.75
2024-03-06T07:55:58.323Z,199.10
2024-03-06T07:56:58.354Z,198.99
2024-03-06T07:57:58.355Z,199.03
2024-03-06T07:58:58.473Z,198.36
2024-03-06T07:59:58.437Z,197.61
2024-03-06T08:00:58.492Z,196.32
2024-03-06T08:01:58.601Z,194.12
2024-03-06T08:02:58.639Z,191.91
2024-03-06T08:03:58.666Z,192.52
2024-03-06T08:04:58.714Z,190.61
2024-03-06T08:05:58.754Z,191.29
2024-03-06T08:06:58.831Z,193.15
2024-03-06T08:07:58.909Z,193.41
2024-03-06T08:09:01.107Z,194.24
2024-03-06T08:09:58.906Z,194.27
2024-03-06T08:10:58.964Z,193.39
2024-03-06T08:11:59.070Z,194.07
2024-03-06T08:12:58.903Z,192.34
2024-03-06T08:13:58.964Z,192.52
2024-03-06T08:14:58.917Z,192.89
2024-03-06T08:15:58.885Z,192.82
2024-03-06T08:16:58.929Z,189.72
2024-03-06T08:17:58.953Z,190.05
2024-03-06T08:18:58.905Z,188.84
2024-03-06T08:19:58.962Z,187.51
2024-03-06T08:20:58.912Z,187.50
2024-03-06T08:21:58.983Z,186.66
2024-03-06T08:22:59.003Z,186.80
2024-03-06T08:23:58.901Z,187.74
2024-03-06T08:24:58.899Z,187.93
2024-03-06T08:25:58.905Z,187.71
2024-03-06T08:26:58.910Z,189.43
2024-03-06T08:27:58.901Z,188.82
2024-03-06T08:28:58.962Z,189.04
2024-03-06T08:29:58.937Z,188.29
2024-03-06T08:30:58.920Z,186.98
2024-03-06T08:31:58.937Z,187.53
2024-03-06T08:32:59.083Z,186.78
2024-03-06T08:33:58.993Z,184.62
2024-03-06T08:34:58.948Z,184.41
2024-03-06T08:35:59.006Z,183.10
2024-03-06T08:36:58.960Z,183.22
2024-03-06T08:37:59.008Z,183.52
2024-03-06T08:38:58.942Z,182.31
2024-03-06T08:39:58.932Z,182.22
2024-03-06T08:40:59.024Z,182.92
2024-03-06T08:41:58.996Z,184.60
2024-03-06T08:42:59.033Z,185.46
2024-03-06T08:43:59.095Z,185.59
2024-03-06T08:44:59.131Z,185.23
2024-03-06T08:45:59.185Z,185.41
2024-03-06T08:46:59.769Z,184.33
2024-03-06T08:47:59.310Z,185.04
2024-03-06T08:49:03.203Z,182.42
2024-03-06T08:50:00.355Z,182.47
2024-03-06T08:50:59.326Z,181.95
2024-03-06T08:51:59.311Z,182.14
2024-03-06T08:52:59.419Z,180.21
2024-03-06T08:53:59.330Z,182.05
2024-03-06T08:54:59.325Z,181.76
2024-03-06T08:55:59.349Z,181.48
2024-03-06T08:56:59.351Z,183.13
2024-03-06T08:57:59.354Z,182.62
2024-03-06T08:58:59.358Z,182.59
2024-03-06T08:59:59.382Z,183.15
2024-03-06T09:00:59.423Z,181.88
2024-03-06T09:01:59.500Z,179.88
2024-03-06T09:02:59.503Z,181.35
2024-03-06T09:03:59.580Z,179.56
2024-03-06T09:04:59.724Z,180.19
2024-03-06T09:05:59.681Z,180.36
2024-03-06T09:06:59.711Z,178.99
2024-03-06T09:08:02.399Z,179.19
2024-03-06T09:08:59.775Z,182.16
2024-03-06T09:09:59.773Z,183.41
2024-03-06T09:10:59.814Z,183.08
2024-03-06T09:11:59.765Z,183.71
2024-03-06T09:12:59.759Z,183.14
2024-03-06T09:14:00.784Z,182.69
2024-03-06T09:14:59.763Z,183.66
2024-03-06T09:15:59.803Z,183.33
2024-03-06T09:16:59.841Z,180.87
2024-03-06T09:17:59.944Z,181.04
2024-03-06T09:18:59.741Z,181.37
2024-03-06T09:20:08.406Z,180.54
2024-03-06T09:21:00.872Z,180.64
2024-03-06T09:21:59.820Z,180.92
2024-03-06T09:22:59.850Z,181.34
2024-03-06T09:23:59.784Z,182.05
2024-03-06T09:24:59.795Z,183.74
2024-03-06T09:25:59.855Z,183.27
2024-03-06T09:26:59.802Z,182.62
2024-03-06T09:27:59.806Z,182.46
2024-03-06T09:28:59.845Z,182.52
2024-03-06T09:29:59.794Z,181.06
2024-03-06T09:30:59.805Z,180.41
2024-03-06T09:31:59.913Z,180.94
2024-03-06T09:33:00.102Z,179.76
2024-03-06T09:33:59.935Z,180.98
2024-03-06T09:35:00.356Z,180.91
2024-03-06T09:36:00.097Z,182.26
2024-03-06T09:37:00.128Z,183.02
2024-03-06T09:38:00.163Z,182.68
2024-03-06T09:39:00.167Z,182.35
2024-03-06T09:40:00.256Z,183.96
2024-03-06T09:41:00.290Z,184.00
2024-03-06T09:42:00.346Z,184.17
2024-03-06T09:43:00.383Z,184.38
2024-03-06T09:44:00.407Z,185.17
2024-03-06T09:45:00.438Z,184.89
2024-03-06T09:46:00.566Z,184.61
2024-03-06T09:47:00.557Z,188.61
2024-03-06T09:48:00.732Z,189.64
2024-03-06T09:49:00.569Z,188.07
2024-03-06T09:50:01.659Z,189.07
2024-03-06T09:51:00.635Z,191.34
2024-03-06T09:52:00.685Z,189.56
2024-03-06T09:53:00.736Z,188.16
2024-03-06T09:54:00.703Z,189.31
2024-03-06T09:55:00.753Z,191.25
2024-03-06T09:56:00.845Z,191.14
2024-03-06T09:57:00.728Z,190.59
2024-03-06T09:58:00.747Z,190.50
2024-03-06T09:59:00.817Z,189.64
2024-03-06T10:00:00.817Z,190.63
2024-03-06T10:01:00.818Z,192.00
2024-03-06T10:02:00.861Z,193.01
2024-03-06T10:03:00.795Z,195.63
2024-03-06T10:04:00.799Z,197.19
2024-03-06T10:05:00.965Z,197.01
2024-03-06T10:06:04.456Z,197.88
2024-03-06T10:07:01.902Z,197.96
2024-03-06T10:08:00.932Z,198.10
2024-03-06T10:09:00.903Z,198.26
2024-03-06T10:10:00.922Z,198.70
2024-03-06T10:11:00.976Z,200.15
2024-03-06T10:12:04.702Z,199.42
2024-03-06T10:13:01.932Z,199.56
2024-03-06T10:14:00.933Z,199.96
2024-03-06T10:15:00.934Z,200.76
2024-03-06T10:16:00.957Z,202.89
2024-03-06T10:17:01.008Z,204.39
2024-03-06T10:18:00.972Z,200.00
2024-03-06T10:19:00.957Z,198.81
2024-03-06T10:20:00.989Z,198.82
2024-03-06T10:21:01.756Z,199.13
2024-03-06T10:22:01.027Z,199.11
2024-03-06T10:23:01.075Z,198.52
2024-03-06T10:24:01.109Z,198.38
2024-03-06T10:25:01.242Z,198.59
2024-03-06T10:26:01.353Z,198.65
2024-03-06T10:27:01.331Z,199.29
2024-03-06T10:28:01.402Z,199.39
2024-03-06T10:29:01.464Z,199.36
2024-03-06T10:30:04.293Z,199.86
2024-03-06T10:31:01.535Z,199.48
2024-03-06T10:32:01.635Z,198.67
2024-03-06T10:33:01.696Z,199.03
2024-03-06T10:34:01.568Z,199.66
2024-03-06T10:35:01.639Z,199.36
2024-03-06T10:36:05.138Z,199.45
2024-03-06T10:37:01.548Z,199.56
2024-03-06T10:38:01.570Z,199.78
2024-03-06T10:39:01.604Z,199.96
2024-03-06T10:40:01.553Z,200.57
2024-03-06T10:41:01.602Z,200.66
2024-03-06T10:42:01.531Z,200.00
2024-03-06T10:43:01.595Z,199.78
2024-03-06T10:44:01.563Z,199.07
2024-03-06T10:45:01.610Z,199.20
2024-03-06T10:46:01.614Z,199.16
2024-03-06T10:47:01.705Z,200.00
2024-03-06T10:48:04.222Z,198.57
2024-03-06T10:49:01.565Z,199.39
2024-03-06T10:50:01.978Z,197.68
2024-03-06T10:51:01.567Z,199.23
2024-03-06T10:52:01.601Z,198.05
2024-03-06T10:53:01.615Z,196.72
2024-03-06T10:54:01.635Z,195.67
2024-03-06T10:55:01.598Z,195.16
2024-03-06T10:56:01.665Z,194.21
2024-03-06T10:57:01.591Z,193.93
2024-03-06T10:58:01.599Z,193.81
2024-03-06T10:59:01.664Z,196.14
2024-03-06T11:00:04.512Z,196.22
2024-03-06T11:01:01.635Z,196.29
2024-03-06T11:02:01.705Z,196.63
2024-03-06T11:03:01.598Z,197.41
2024-03-06T11:04:01.634Z,197.84
2024-03-06T11:05:01.705Z,199.50
2024-03-06T11:06:04.963Z,197.98
2024-03-06T11:07:01.613Z,198.04
2024-03-06T11:08:01.664Z,198.01
2024-03-06T11:09:01.621Z,197.21
2024-03-06T11:10:01.652Z,195.05
2024-03-06T11:11:01.664Z,195.30
2024-03-06T11:12:01.678Z,195.06
2024-03-06T11:13:01.609Z,196.36
2024-03-06T11:14:01.665Z,196.56
2024-03-06T11:15:01.609Z,197.55
2024-03-06T11:16:01.613Z,196.98
2024-03-06T11:17:01.670Z,197.32
2024-03-06T11:18:04.134Z,197.33
2024-03-06T11:19:01.857Z,197.37
2024-03-06T11:20:02.369Z,197.27
2024-03-06T11:21:01.859Z,197.03
2024-03-06T11:22:01.868Z,195.58
2024-03-06T11:23:01.910Z,195.67
2024-03-06T11:24:04.722Z,196.34
2024-03-06T11:25:01.925Z,197.93
2024-03-06T11:26:01.993Z,197.52
2024-03-06T11:27:02.011Z,198.98
2024-03-06T11:28:01.929Z,199.11
2024-03-06T11:29:01.940Z,198.63
2024-03-06T11:30:04.539Z,198.09
2024-03-06T11:31:01.956Z,198.18
2024-03-06T11:32:01.980Z,198.37
2024-03-06T11:33:02.329Z,197.56
2024-03-06T11:34:02.035Z,197.20
2024-03-06T11:35:01.897Z,193.86
2024-03-06T11:36:05.022Z,192.96
2024-03-06T11:37:01.918Z,193.05
2024-03-06T11:38:01.985Z,193.15
2024-03-06T11:39:01.989Z,193.02
2024-03-06T11:40:01.939Z,191.55
2024-03-06T11:41:01.991Z,188.64
2024-03-06T11:42:01.978Z,187.64
2024-03-06T11:43:01.925Z,187.37
2024-03-06T11:44:02.105Z,186.53
2024-03-06T11:45:01.901Z,185.64
2024-03-06T11:46:01.914Z,184.01
2024-03-06T11:47:02.016Z,183.27
2024-03-06T11:48:02.071Z,181.28
2024-03-06T11:49:01.927Z,181.58
2024-03-06T11:50:01.967Z,180.46
2024-03-06T11:51:04.744Z,180.64
2024-03-06T11:52:01.919Z,180.66
2024-03-06T11:53:01.997Z,180.68
2024-03-06T11:54:01.941Z,178.67
2024-03-06T11:55:01.940Z,177.99
2024-03-06T11:56:01.954Z,178.72
2024-03-06T11:57:01.945Z,176.50
2024-03-06T11:58:01.957Z,174.98
2024-03-06T11:59:01.994Z,174.31
2024-03-06T12:00:01.927Z,173.31
2024-03-06T12:01:01.979Z,171.98
2024-03-06T12:02:02.005Z,172.45
2024-03-06T12:03:01.980Z,171.63
2024-03-06T12:04:04.910Z,171.58
2024-03-06T12:05:01.931Z,171.65
2024-03-06T12:06:01.953Z,171.69
2024-03-06T12:07:01.969Z,171.68
2024-03-06T12:08:01.938Z,171.67
2024-03-06T12:09:01.929Z,170.74
2024-03-06T12:10:01.968Z,169.76
2024-03-06T12:11:02.036Z,166.43
2024-03-06T12:12:02.124Z,151.05
2024-03-06T12:13:01.961Z,143.66
2024-03-06T12:14:01.986Z,138.64
2024-03-06T12:15:02.057Z,135.32
2024-03-06T12:16:04.727Z,130.88
2024-03-06T12:17:02.031Z,130.95
2024-03-06T12:18:02.071Z,131.27
2024-03-06T12:19:02.014Z,131.78
2024-03-06T12:20:02.087Z,133.79
2024-03-06T12:21:01.934Z,138.08
2024-03-06T12:22:04.670Z,140.94
2024-03-06T12:23:02.011Z,141.18
2024-03-06T12:24:01.974Z,142.12
2024-03-06T12:25:02.023Z,143.77
2024-03-06T12:26:06.102Z,145.66
2024-03-06T12:27:01.967Z,141.33
2024-03-06T12:28:01.975Z,142.51
2024-03-06T12:29:01.995Z,144.66
2024-03-06T12:30:02.096Z,147.29
2024-03-06T12:31:01.962Z,151.35
2024-03-06T12:32:02.109Z,149.24
2024-03-06T12:33:02.059Z,147.45
2024-03-06T12:34:04.760Z,148.59
2024-03-06T12:35:02.488Z,147.36
2024-03-06T12:36:01.995Z,148.63
2024-03-06T12:37:02.032Z,147.95
2024-03-06T12:38:02.857Z,148.84
2024-03-06T12:39:02.002Z,149.84
2024-03-06T12:40:02.091Z,150.75
2024-03-06T12:41:02.019Z,149.84
2024-03-06T12:42:02.006Z,150.61
2024-03-06T12:43:01.984Z,150.50
2024-03-06T12:44:02.107Z,155.18
2024-03-06T12:45:02.010Z,155.97
2024-03-06T12:46:04.270Z,153.51
2024-03-06T12:47:02.063Z,153.54
2024-03-06T12:48:02.095Z,149.54
2024-03-06T12:49:01.993Z,139.96
2024-03-06T12:50:02.094Z,133.49
2024-03-06T12:51:02.010Z,125.30
2024-03-06T12:52:05.695Z,118.54
2024-03-06T12:53:02.107Z,116.11
2024-03-06T12:54:02.130Z,109.51
2024-03-06T12:55:02.037Z,104.51
2024-03-06T12:56:02.148Z,99.15
2024-03-06T12:57:02.039Z,94.38
2024-03-06T12:58:02.010Z,89.85
2024-03-06T12:59:02.106Z,86.46
2024-03-06T13:00:02.035Z,83.21
2024-03-06T13:01:02.070Z,80.80
2024-03-06T13:02:02.138Z,78.78
2024-03-06T13:03:02.026Z,76.79
2024-03-06T13:04:06.470Z,75.68
2024-03-06T13:05:03.036Z,75.70
2024-03-06T13:06:02.192Z,74.60
2024-03-06T13:07:02.030Z,72.36
2024-03-06T13:08:02.058Z,68.55
2024-03-06T13:09:02.017Z,65.22
2024-03-06T13:10:04.817Z,61.45
2024-03-06T13:11:02.133Z,61.51
2024-03-06T13:12:02.219Z,59.37
2024-03-06T13:13:02.055Z,58.92
2024-03-06T13:14:02.184Z,56.14
2024-03-06T13:15:02.065Z,55.30
2024-03-06T13:16:04.867Z,53.60
2024-03-06T13:17:02.121Z,53.67
2024-03-06T13:18:02.125Z,53.91
2024-03-06T13:19:02.074Z,55.24
2024-03-06T13:20:02.162Z,54.70
2024-03-06T13:21:02.104Z,55.82
2024-03-06T13:22:04.467Z,53.14
2024-03-06T13:23:02.109Z,53.20
2024-03-06T13:24:02.088Z,53.38
2024-03-06T13:25:02.051Z,53.44
2024-03-06T13:26:02.337Z,52.29
2024-03-06T13:27:02.061Z,52.36
2024-03-06T13:28:02.049Z,52.58
2024-03-06T13:29:02.104Z,53.07
2024-03-06T13:30:04.743Z,50.49
2024-03-06T13:31:02.071Z,50.54
2024-03-06T13:32:02.188Z,50.52
2024-03-06T13:33:02.248Z,49.86
2024-03-06T13:34:02.107Z,47.38
2024-03-06T13:35:02.159Z,47.14